createdAt,value
2018-05-25T00:00:18.020Z,9.40
2018-05-25T00:02:46.253Z,11.33
2018-05-25T00:05:14.439Z,9.03
2018-05-25T00:07:42.662Z,11.00
2018-05-25T00:10:11.244Z,8.53
2018-05-25T00:12:40.965Z,10.20
2018-05-25T00:15:09.357Z,8.33
2018-05-25T00:17:37.532Z,8.10
2018-05-25T00:20:05.687Z,11.20
2018-05-25T00:22:33.870Z,8.70
2018-05-25T00:25:02.021Z,8.07
2018-05-25T00:27:30.195Z,9.00
2018-05-25T00:29:58.346Z,9.25
2018-05-25T00:32:26.533Z,9.43
2018-05-25T00:34:54.699Z,9.40
2018-05-25T00:37:22.857Z,8.17
2018-05-25T00:39:51.044Z,15.37
2018-05-25T00:42:19.833Z,9.73
2018-05-25T00:44:48.015Z,9.80
2018-05-25T00:47:17.306Z,14.40
2018-05-25T00:49:45.481Z,10.73
2018-05-25T00:52:13.653Z,11.60
2018-05-25T00:54:41.815Z,11.63
2018-05-25T00:57:09.997Z,10.18
2018-05-25T00:59:38.157Z,11.52
2018-05-25T01:02:06.336Z,9.90
2018-05-25T01:04:34.497Z,14.30
2018-05-25T01:07:02.680Z,11.88
2018-05-25T01:09:30.839Z,9.90
2018-05-25T01:11:59.020Z,11.90
2018-05-25T01:14:27.197Z,9.50
2018-05-25T01:16:55.398Z,10.90
2018-05-25T01:19:24.488Z,10.02
2018-05-25T01:21:52.663Z,10.57
2018-05-25T01:26:55.370Z,10.43
2018-05-25T01:29:24.546Z,9.13
2018-05-25T01:31:52.716Z,10.27
2018-05-25T01:34:26.900Z,8.77
2018-05-25T01:36:55.046Z,14.63
2018-05-25T01:39:30.117Z,9.03
2018-05-25T01:41:58.252Z,9.27
2018-05-25T01:44:26.438Z,9.70
2018-05-25T01:47:01.626Z,10.93
2018-05-25T01:49:29.806Z,10.40
2018-05-25T01:51:57.958Z,9.63
2018-05-25T01:54:26.122Z,9.63
2018-05-25T01:56:54.863Z,8.93
2018-05-25T01:59:23.026Z,9.33
2018-05-25T02:01:51.192Z,9.50
2018-05-25T02:04:19.386Z,11.27
2018-05-25T02:06:47.557Z,13.20
2018-05-25T02:09:19.582Z,12.87
2018-05-25T02:11:47.760Z,10.50
2018-05-25T02:14:15.904Z,10.23
2018-05-25T02:16:44.188Z,9.87
2018-05-25T02:19:12.380Z,11.48
2018-05-25T02:21:40.560Z,9.93
2018-05-25T02:24:12.290Z,10.77
2018-05-25T02:26:40.756Z,9.63
2018-05-25T02:29:08.940Z,10.47
2018-05-25T02:31:37.106Z,11.55
2018-05-25T02:34:05.282Z,11.68
2018-05-25T02:36:33.428Z,9.60
2018-05-25T02:39:01.618Z,10.13
2018-05-25T02:41:29.788Z,12.77
2018-05-25T02:43:57.976Z,9.00
2018-05-25T02:46:26.112Z,10.07
2018-05-25T02:48:54.294Z,8.97
2018-05-25T02:51:22.462Z,12.23
2018-05-25T02:53:50.627Z,11.83
2018-05-25T02:56:18.796Z,11.13
2018-05-25T02:58:46.976Z,10.73
2018-05-25T03:01:15.141Z,11.93
2018-05-25T03:03:43.340Z,12.80
2018-05-25T03:06:11.506Z,11.70
2018-05-25T03:08:39.684Z,10.90
2018-05-25T03:11:09.880Z,8.90
2018-05-25T03:13:38.044Z,8.40
2018-05-25T03:16:06.232Z,9.63
2018-05-25T03:18:44.196Z,8.20
2018-05-25T03:21:12.362Z,8.43
2018-05-25T03:23:48.728Z,7.97
2018-05-25T03:26:16.914Z,8.07
2018-05-25T03:28:45.066Z,8.87
2018-05-25T03:31:19.424Z,10.73
2018-05-25T03:33:47.592Z,7.93
2018-05-25T03:36:18.954Z,8.33
2018-05-25T03:38:47.156Z,7.70
2018-05-25T03:41:15.336Z,7.43
2018-05-25T03:43:43.528Z,7.60
2018-05-25T03:46:11.692Z,21.90
2018-05-25T03:48:39.866Z,23.37
2018-05-25T03:51:08.054Z,7.10
2018-05-25T03:53:42.445Z,6.60
2018-05-25T03:56:11.359Z,6.87
2018-05-25T03:58:51.399Z,7.87
2018-05-25T04:01:33.126Z,6.00
2018-05-25T04:04:04.496Z,11.63
2018-05-25T04:06:32.710Z,12.90
2018-05-25T04:09:00.859Z,9.87
2018-05-25T04:11:29.048Z,8.10
2018-05-25T04:13:57.205Z,22.93
2018-05-25T04:16:25.381Z,7.50
2018-05-25T04:18:53.543Z,8.50
2018-05-25T04:21:21.725Z,11.33
2018-05-25T04:23:54.142Z,10.80
2018-05-25T04:26:22.309Z,24.93
2018-05-25T04:28:50.673Z,10.10
2018-05-25T04:31:18.828Z,6.67
2018-05-25T04:33:46.997Z,12.13
2018-05-25T04:36:15.167Z,10.67
2018-05-25T04:38:43.320Z,9.65
2018-05-25T04:41:19.739Z,12.10
2018-05-25T04:43:47.898Z,15.02
2018-05-25T04:46:22.349Z,30.43
2018-05-25T04:48:50.485Z,20.20
2018-05-25T04:51:18.659Z,11.17
2018-05-25T04:53:46.840Z,16.37
2018-05-25T04:56:16.786Z,11.67
2018-05-25T04:58:44.958Z,32.93
2018-05-25T05:01:13.157Z,18.35
2018-05-25T05:03:41.341Z,24.05
2018-05-25T05:06:09.503Z,16.52
2018-05-25T05:08:37.685Z,21.83
2018-05-25T05:11:05.861Z,18.43
2018-05-25T05:13:34.055Z,13.13
2018-05-25T05:16:02.250Z,12.07
2018-05-25T05:18:30.425Z,12.83
2018-05-25T05:20:58.600Z,14.10
2018-05-25T05:23:33.199Z,11.32
2018-05-25T05:26:01.356Z,11.87
2018-05-25T05:28:29.519Z,13.00
2018-05-25T05:30:57.715Z,15.13
2018-05-25T05:33:25.896Z,14.00
2018-05-25T05:35:54.084Z,20.40
2018-05-25T05:38:22.249Z,19.97
2018-05-25T05:40:50.469Z,16.27
2018-05-25T05:43:18.592Z,15.63
2018-05-25T05:45:46.781Z,14.30
2018-05-25T05:48:14.943Z,20.52
2018-05-25T05:50:51.621Z,15.68
2018-05-25T05:53:19.794Z,18.83
2018-05-25T05:55:47.973Z,14.68
2018-05-25T05:58:16.125Z,14.40
2018-05-25T06:00:45.754Z,16.00
2018-05-25T06:03:26.927Z,16.77
2018-05-25T06:05:55.095Z,20.60
2018-05-25T06:08:24.151Z,17.30
2018-05-25T06:10:52.320Z,22.60
2018-05-25T06:13:28.799Z,17.87
2018-05-25T06:15:56.974Z,19.80
2018-05-25T06:18:25.175Z,18.93
2018-05-25T06:20:53.361Z,16.00
2018-05-25T06:23:21.552Z,17.27
2018-05-25T06:25:49.785Z,17.80
2018-05-25T06:28:17.966Z,16.07
2018-05-25T06:30:46.153Z,20.17
2018-05-25T06:33:20.800Z,17.50
2018-05-25T06:35:48.966Z,17.77
2018-05-25T06:38:17.165Z,19.03
2018-05-25T06:40:46.157Z,16.55
2018-05-25T06:43:14.316Z,16.57
2018-05-25T06:45:42.483Z,17.50
2018-05-25T06:48:10.653Z,17.90
2018-05-25T06:50:38.921Z,19.97
2018-05-25T06:55:45.960Z,17.90
2018-05-25T06:58:14.873Z,25.10
2018-05-25T07:00:44.608Z,18.00
2018-05-25T07:03:15.165Z,19.70
2018-05-25T07:05:43.344Z,19.30
2018-05-25T07:08:11.533Z,18.65
2018-05-25T07:10:39.716Z,17.67
2018-05-25T07:13:07.884Z,22.80
2018-05-25T07:15:44.195Z,17.63
2018-05-25T07:18:28.802Z,21.15
2018-05-25T07:20:57.358Z,17.57
2018-05-25T07:23:25.527Z,16.10
2018-05-25T07:25:53.676Z,17.43
2018-05-25T07:28:21.861Z,17.60
2018-05-25T07:30:51.679Z,21.33
2018-05-25T07:33:25.770Z,19.37
2018-05-25T07:35:53.904Z,22.50
2018-05-25T07:38:22.092Z,22.90
2018-05-25T07:40:54.097Z,17.00
2018-05-25T07:43:29.974Z,22.10
2018-05-25T07:45:58.136Z,19.20
2018-05-25T07:48:26.333Z,22.50
2018-05-25T07:50:54.484Z,20.70
2018-05-25T07:53:23.988Z,19.40
2018-05-25T07:55:53.474Z,18.52
2018-05-25T07:58:21.666Z,18.27
2018-05-25T08:00:49.866Z,16.73
2018-05-25T08:03:18.025Z,17.67
2018-05-25T08:05:53.107Z,17.20
2018-05-25T08:08:21.265Z,18.70
2018-05-25T08:10:49.437Z,20.53
2018-05-25T08:13:17.592Z,19.10
2018-05-25T08:15:46.423Z,17.83
2018-05-25T08:18:24.213Z,15.63
2018-05-25T08:20:52.396Z,20.70
2018-05-25T08:23:20.597Z,16.83
2018-05-25T08:25:48.790Z,16.90
2018-05-25T08:28:16.966Z,18.30
2018-05-25T08:30:45.128Z,17.57
2018-05-25T08:33:20.060Z,16.67
2018-05-25T08:35:48.236Z,14.43
2018-05-25T08:38:16.678Z,16.48
2018-05-25T08:40:44.847Z,15.13
2018-05-25T08:43:13.072Z,11.20
2018-05-25T08:45:42.765Z,8.57
2018-05-25T08:48:10.965Z,13.00
2018-05-25T08:50:39.144Z,14.63
2018-05-25T08:53:07.317Z,12.67
2018-05-25T08:55:35.480Z,7.87
2018-05-25T08:58:03.681Z,6.70
2018-05-25T09:00:31.847Z,9.00
2018-05-25T09:03:00.010Z,4.57
2018-05-25T09:05:28.198Z,6.03
2018-05-25T09:07:56.363Z,4.93
2018-05-25T09:10:24.813Z,5.30
2018-05-25T09:12:53.030Z,5.93
2018-05-25T09:15:21.199Z,8.13
2018-05-25T09:17:49.387Z,9.07
2018-05-25T09:20:17.542Z,7.13
2018-05-25T09:22:45.734Z,10.93
2018-05-25T09:25:20.310Z,3.80
2018-05-25T09:27:48.472Z,3.87
2018-05-25T09:30:17.171Z,3.20
2018-05-25T09:32:45.364Z,6.37
2018-05-25T09:35:19.946Z,5.63
2018-05-25T09:37:48.109Z,8.90
2018-05-25T09:40:17.201Z,5.70
2018-05-25T09:42:45.366Z,1.80
2018-05-25T09:45:13.534Z,2.70
2018-05-25T09:47:41.699Z,3.63
2018-05-25T09:50:10.162Z,3.20
2018-05-25T09:52:38.797Z,3.93
2018-05-25T09:55:13.922Z,2.40
2018-05-25T09:57:56.974Z,2.40
2018-05-25T10:00:26.367Z,2.87
2018-05-25T10:02:54.529Z,3.90
2018-05-25T10:05:22.706Z,3.27
2018-05-25T10:07:50.880Z,2.87
2018-05-25T10:10:19.045Z,2.40
2018-05-25T10:12:47.560Z,2.20
2018-05-25T10:15:15.748Z,2.20
2018-05-25T10:17:44.029Z,3.00
2018-05-25T10:20:12.191Z,1.83
2018-05-25T10:22:47.222Z,1.83
2018-05-25T10:25:15.667Z,1.80
2018-05-25T10:27:45.393Z,2.62
2018-05-25T10:30:13.626Z,2.43
2018-05-25T10:32:41.813Z,4.00
2018-05-25T10:35:10.029Z,5.33
2018-05-25T10:37:38.174Z,3.50
2018-05-25T10:40:11.254Z,2.60
2018-05-25T10:42:42.450Z,2.90
2018-05-25T10:45:11.392Z,2.80
2018-05-25T10:47:40.604Z,3.10
2018-05-25T10:50:08.786Z,2.93
2018-05-25T10:52:44.212Z,3.60
2018-05-25T10:55:12.390Z,4.70
2018-05-25T10:57:40.539Z,7.30
2018-05-25T11:00:08.718Z,4.30
2018-05-25T11:02:36.872Z,4.00
2018-05-25T11:05:05.817Z,3.43
2018-05-25T11:07:33.986Z,3.43
2018-05-25T11:10:02.191Z,4.53
2018-05-25T11:12:30.344Z,5.60
2018-05-25T11:14:58.782Z,3.50
2018-05-25T11:17:26.967Z,3.63
2018-05-25T11:19:55.149Z,3.67
2018-05-25T11:22:23.339Z,3.80
2018-05-25T11:24:51.481Z,6.03
2018-05-25T11:27:19.661Z,3.55
2018-05-25T11:29:47.835Z,11.15
2018-05-25T11:32:19.624Z,4.20
2018-05-25T11:34:47.778Z,3.50
2018-05-25T11:37:15.947Z,6.55
2018-05-25T11:39:44.117Z,5.72
2018-05-25T11:42:12.281Z,3.25
2018-05-25T11:44:40.447Z,2.37
2018-05-25T11:47:11.915Z,2.60
2018-05-25T11:49:41.357Z,3.13
2018-05-25T11:52:10.701Z,2.90
2018-05-25T11:54:38.868Z,3.60
2018-05-25T11:57:07.159Z,2.03
2018-05-25T11:59:35.331Z,2.10
2018-05-25T12:02:03.479Z,3.10
2018-05-25T12:04:31.707Z,2.37
2018-05-25T12:06:59.897Z,2.30
2018-05-25T12:09:34.341Z,2.20
2018-05-25T12:12:02.483Z,2.47
2018-05-25T12:14:30.637Z,2.30
2018-05-25T12:16:58.821Z,2.60
2018-05-25T12:19:27.020Z,7.43
2018-05-25T12:21:55.218Z,5.75
2018-05-25T12:24:26.425Z,1.80
2018-05-25T12:26:54.585Z,1.97
2018-05-25T12:29:22.731Z,2.80
2018-05-25T12:31:50.901Z,2.60
2018-05-25T12:34:20.442Z,1.80
2018-05-25T12:36:51.608Z,4.43
2018-05-25T12:39:22.849Z,2.57
2018-05-25T12:41:51.086Z,1.93
2018-05-25T12:44:19.298Z,2.78
2018-05-25T12:46:47.565Z,2.70
2018-05-25T12:49:15.744Z,2.40
2018-05-25T12:51:43.935Z,2.33
2018-05-25T12:54:12.329Z,4.53
2018-05-25T12:56:40.646Z,2.43
2018-05-25T12:59:08.796Z,2.40
2018-05-25T13:01:36.989Z,2.50
2018-05-25T13:04:05.165Z,3.23
2018-05-25T13:06:33.312Z,3.00
2018-05-25T13:09:01.506Z,3.40
2018-05-25T13:11:29.659Z,2.23
2018-05-25T13:13:57.821Z,3.40
2018-05-25T13:16:26.042Z,4.70
2018-05-25T13:18:54.183Z,2.70
2018-05-25T13:21:22.375Z,2.40
2018-05-25T13:23:50.543Z,4.70
2018-05-25T13:26:18.955Z,4.63
2018-05-25T13:28:47.219Z,7.10
2018-05-25T13:31:15.421Z,4.57
2018-05-25T13:33:43.555Z,4.60
2018-05-25T13:36:11.720Z,5.40
2018-05-25T13:38:39.876Z,6.53
2018-05-25T13:41:08.861Z,9.00
2018-05-25T13:43:37.033Z,9.53
2018-05-25T13:46:05.201Z,8.33
2018-05-25T13:48:33.404Z,7.00
2018-05-25T13:51:01.557Z,7.70
2018-05-25T13:53:29.790Z,5.53
2018-05-25T13:55:57.959Z,7.53
2018-05-25T13:58:26.132Z,4.00
2018-05-25T14:00:54.322Z,5.63
2018-05-25T14:03:22.645Z,4.40
2018-05-25T14:05:50.808Z,7.67
2018-05-25T14:08:18.975Z,5.13
2018-05-25T14:10:47.136Z,5.57
2018-05-25T14:13:15.317Z,12.70
2018-05-25T14:15:43.494Z,6.60
2018-05-25T14:18:11.694Z,6.43
2018-05-25T14:20:39.884Z,5.17
2018-05-25T14:23:08.052Z,6.03
2018-05-25T14:25:36.210Z,4.80
2018-05-25T14:28:04.614Z,6.10
2018-05-25T14:30:32.895Z,4.57
2018-05-25T14:33:01.072Z,5.40
2018-05-25T14:35:29.270Z,5.03
2018-05-25T14:37:57.466Z,5.45
2018-05-25T14:40:25.639Z,6.28
2018-05-25T14:42:53.870Z,4.53
2018-05-25T14:45:22.035Z,5.43
2018-05-25T14:47:50.214Z,5.27
2018-05-25T14:50:18.388Z,5.50
2018-05-25T14:52:47.332Z,5.27
2018-05-25T14:55:15.536Z,5.63
2018-05-25T14:57:43.736Z,6.70
2018-05-25T15:00:11.911Z,10.60
2018-05-25T15:02:40.356Z,8.93
2018-05-25T15:05:08.525Z,10.07
2018-05-25T15:07:36.697Z,8.05
2018-05-25T15:10:04.865Z,8.82
2018-05-25T15:12:33.026Z,9.60
2018-05-25T15:15:01.219Z,7.00
2018-05-25T15:17:29.382Z,7.43
2018-05-25T15:19:57.556Z,7.77
2018-05-25T15:22:29.289Z,10.57
2018-05-25T15:24:57.494Z,6.97
2018-05-25T15:27:25.651Z,7.23
2018-05-25T15:29:53.814Z,6.37
2018-05-25T15:32:22.004Z,8.00
2018-05-25T15:34:50.159Z,6.93
2018-05-25T15:37:18.348Z,11.03
2018-05-25T15:39:46.522Z,6.20
2018-05-25T15:42:14.676Z,8.53
2018-05-25T15:44:42.862Z,12.00
2018-05-25T15:47:17.604Z,8.13
2018-05-25T15:49:45.763Z,7.20
2018-05-25T15:52:13.906Z,8.00
2018-05-25T15:54:45.262Z,7.97
2018-05-25T15:57:13.420Z,8.15
2018-05-25T15:59:41.621Z,11.73
2018-05-25T16:02:12.082Z,7.32
2018-05-25T16:04:40.256Z,8.10
2018-05-25T16:07:08.423Z,9.27
2018-05-25T16:09:36.642Z,8.20
2018-05-25T16:12:04.791Z,9.13
2018-05-25T16:14:32.990Z,8.38
2018-05-25T16:17:02.116Z,8.60
2018-05-25T16:19:30.297Z,9.57
2018-05-25T16:21:58.477Z,8.63
2018-05-25T16:24:26.623Z,8.10
2018-05-25T16:26:54.822Z,9.50
2018-05-25T16:29:22.980Z,9.07
2018-05-25T16:31:51.188Z,8.63
2018-05-25T16:34:19.352Z,8.03
2018-05-25T16:36:47.536Z,8.77
2018-05-25T16:39:15.722Z,7.70
2018-05-25T16:41:43.983Z,10.10
2018-05-25T16:44:12.156Z,7.77
2018-05-25T16:46:40.340Z,7.97
2018-05-25T16:49:08.499Z,6.80
2018-05-25T16:51:36.675Z,8.10
2018-05-25T16:54:04.857Z,8.60
2018-05-25T16:56:33.013Z,9.23
2018-05-25T16:59:01.186Z,8.80
2018-05-25T17:01:29.321Z,8.50
2018-05-25T17:03:57.527Z,8.70
2018-05-25T17:06:26.525Z,9.50
2018-05-25T17:08:54.746Z,10.33
2018-05-25T17:11:22.919Z,8.07
2018-05-25T17:13:51.096Z,12.77
2018-05-25T17:16:19.267Z,12.80
2018-05-25T17:18:47.443Z,7.40
2018-05-25T17:21:16.357Z,7.53
2018-05-25T17:23:44.495Z,8.30
2018-05-25T17:26:12.689Z,7.90
2018-05-25T17:28:40.835Z,11.57
2018-05-25T17:31:09.017Z,8.73
2018-05-25T17:33:37.174Z,12.10
2018-05-25T17:36:05.417Z,8.10
2018-05-25T17:38:35.344Z,10.13
2018-05-25T17:41:03.520Z,7.73
2018-05-25T17:43:31.700Z,9.25
2018-05-25T17:45:59.862Z,9.53
2018-05-25T17:48:28.068Z,7.23
2018-05-25T17:50:57.044Z,7.60
2018-05-25T17:53:25.225Z,14.27
2018-05-25T17:55:53.395Z,10.03
2018-05-25T17:58:21.546Z,8.27
2018-05-25T18:00:49.702Z,7.63
2018-05-25T18:03:17.888Z,8.20
2018-05-25T18:05:46.138Z,6.97
2018-05-25T18:08:14.281Z,8.45
2018-05-25T18:10:42.511Z,7.57
2018-05-25T18:13:10.641Z,8.57
2018-05-25T18:15:45.797Z,6.53
2018-05-25T18:18:13.978Z,6.97
2018-05-25T18:20:42.151Z,8.13
2018-05-25T18:23:10.297Z,6.10
2018-05-25T18:25:38.535Z,4.10
2018-05-25T18:28:06.683Z,5.33
2018-05-25T18:30:34.895Z,5.73
2018-05-25T18:33:09.065Z,6.30
2018-05-25T18:35:37.532Z,4.73
2018-05-25T18:38:05.714Z,4.77
2018-05-25T18:40:33.883Z,5.40
2018-05-25T18:43:02.063Z,3.72
2018-05-25T18:45:30.214Z,5.03
2018-05-25T18:47:58.417Z,5.30
2018-05-25T18:50:29.736Z,4.33
2018-05-25T18:52:57.909Z,5.10
2018-05-25T18:55:28.343Z,6.50
2018-05-25T18:57:56.676Z,11.20
2018-05-25T19:00:30.891Z,9.73
2018-05-25T19:02:59.079Z,5.33
2018-05-25T19:05:28.095Z,4.95
2018-05-25T19:07:56.265Z,4.47
2018-05-25T19:10:24.434Z,4.90
2018-05-25T19:12:52.596Z,6.50
2018-05-25T19:15:20.927Z,9.20
2018-05-25T19:17:49.163Z,8.37
2018-05-25T19:20:17.363Z,5.33
2018-05-25T19:22:45.528Z,5.63
2018-05-25T19:25:17.056Z,6.07
2018-05-25T19:27:45.223Z,7.05
2018-05-25T19:30:13.565Z,10.83
2018-05-25T19:32:44.530Z,19.70
2018-05-25T19:35:19.355Z,6.63
2018-05-25T19:37:47.516Z,7.33
2018-05-25T19:40:23.464Z,6.70
2018-05-25T19:42:51.620Z,6.80
2018-05-25T19:45:19.851Z,6.30
2018-05-25T19:47:47.970Z,7.60
2018-05-25T19:50:16.119Z,10.63
2018-05-25T19:52:44.344Z,9.40
2018-05-25T19:55:19.033Z,7.10
2018-05-25T19:57:47.194Z,6.50
2018-05-25T20:00:15.370Z,6.65
2018-05-25T20:02:46.602Z,9.03
2018-05-25T20:05:21.414Z,7.82
2018-05-25T20:07:49.640Z,9.10
2018-05-25T20:10:17.819Z,5.97
2018-05-25T20:12:45.977Z,11.57
2018-05-25T20:15:14.157Z,8.13
2018-05-25T20:17:42.336Z,8.77
2018-05-25T20:20:10.558Z,7.87
2018-05-25T20:22:38.830Z,8.17
2018-05-25T20:25:07.677Z,9.47
2018-05-25T20:27:35.843Z,7.80
2018-05-25T20:30:04.030Z,9.20
2018-05-25T20:32:32.193Z,9.30
2018-05-25T20:35:00.424Z,9.10
2018-05-25T20:37:28.559Z,9.87
2018-05-25T20:39:56.733Z,7.50
2018-05-25T20:42:24.893Z,12.07
2018-05-25T20:44:53.052Z,10.30
2018-05-25T20:47:21.256Z,10.68
2018-05-25T20:49:49.450Z,17.97
2018-05-25T20:52:17.634Z,14.00
2018-05-25T20:54:45.794Z,12.30
2018-05-25T20:57:14.000Z,12.83
2018-05-25T20:59:42.171Z,17.45
2018-05-25T21:02:11.244Z,15.20
2018-05-25T21:04:39.412Z,11.20
2018-05-25T21:07:07.566Z,13.80
2018-05-25T21:09:35.757Z,13.97
2018-05-25T21:12:04.042Z,11.70
2018-05-25T21:14:32.217Z,9.33
2018-05-25T21:17:00.365Z,16.33
2018-05-25T21:19:29.385Z,12.10
2018-05-25T21:21:57.554Z,10.07
2018-05-25T21:24:25.724Z,9.30
2018-05-25T21:26:53.894Z,10.27
2018-05-25T21:29:22.118Z,9.13
2018-05-25T21:31:51.904Z,11.17
2018-05-25T21:34:20.108Z,11.63
2018-05-25T21:36:48.274Z,10.85
2018-05-25T21:39:17.061Z,9.38
2018-05-25T21:41:45.236Z,10.55
2018-05-25T21:44:13.397Z,10.18
2018-05-25T21:46:41.571Z,8.50
2018-05-25T21:49:09.733Z,11.07
2018-05-25T21:51:37.925Z,8.97
2018-05-25T21:54:06.090Z,9.10
2018-05-25T21:56:34.484Z,11.10
2018-05-25T21:59:02.643Z,9.03
2018-05-25T22:01:30.804Z,8.50
2018-05-25T22:03:58.973Z,7.27
2018-05-25T22:06:27.144Z,9.60
2018-05-25T22:08:55.298Z,10.23
2018-05-25T22:11:26.018Z,11.43
2018-05-25T22:13:54.211Z,12.00
2018-05-25T22:16:22.391Z,10.15
2018-05-25T22:18:50.587Z,9.00
2018-05-25T22:21:18.736Z,8.70
2018-05-25T22:23:46.905Z,9.03
2018-05-25T22:26:15.075Z,10.03
2018-05-25T22:28:43.259Z,9.67
2018-05-25T22:31:11.443Z,10.57
2018-05-25T22:33:39.605Z,10.10
2018-05-25T22:36:07.804Z,11.87
2018-05-25T22:38:35.979Z,11.60
2018-05-25T22:41:04.914Z,11.00
2018-05-25T22:43:45.589Z,8.60
2018-05-25T22:46:25.680Z,10.57
2018-05-25T22:49:05.681Z,9.20
2018-05-25T22:51:45.843Z,14.60
2018-05-25T22:54:34.326Z,14.50
2018-05-25T22:57:02.491Z,11.60
2018-05-25T22:59:30.687Z,11.40
2018-05-25T23:01:58.867Z,14.07
2018-05-25T23:04:27.055Z,13.30
2018-05-25T23:06:55.288Z,12.67
2018-05-25T23:09:23.446Z,12.37
2018-05-25T23:11:51.612Z,12.20
2018-05-25T23:14:19.794Z,12.80
2018-05-25T23:16:47.974Z,12.20
2018-05-25T23:19:16.185Z,16.83
2018-05-25T23:21:44.362Z,12.60
2018-05-25T23:24:19.527Z,11.90
2018-05-25T23:26:50.779Z,13.77
2018-05-25T23:29:19.403Z,15.27
2018-05-25T23:31:47.567Z,13.30
2018-05-25T23:34:15.756Z,13.35
2018-05-25T23:36:43.947Z,13.53
2018-05-25T23:39:19.239Z,17.57
2018-05-25T23:41:50.732Z,16.60
2018-05-25T23:44:18.954Z,15.40
2018-05-25T23:46:47.125Z,16.90
2018-05-25T23:49:15.312Z,15.70
2018-05-25T23:51:43.481Z,15.20
2018-05-25T23:54:12.382Z,14.03
2018-05-25T23:56:40.571Z,14.40
2018-05-25T23:59:09.752Z,12.77
